sensor_id;sensor_type;location;lat;lon;timestamp;P1;durP1;ratioP1;P2;durP2;ratioP2
71080;SDS011;58740;50.672;18.690;2023-09-12T00:01:45;25.80;;;18.20;;
71080;SDS011;58740;50.672;18.690;2023-09-12T00:04:13;21.50;;;16.70;;
71080;SDS011;58740;50.672;18.690;2023-09-12T00:06:41;24.10;;;16.50;;
71080;SDS011;58740;50.672;18.690;2023-09-12T00:09:09;24.50;;;16.50;;
71080;SDS011;58740;50.672;18.690;2023-09-12T00:11:36;23.40;;;16.50;;
71080;SDS011;58740;50.672;18.690;2023-09-12T00:14:04;26.00;;;16.10;;
71080;SDS011;58740;50.672;18.690;2023-09-12T00:16:32;24.00;;;17.70;;
71080;SDS011;58740;50.672;18.690;2023-09-12T00:19:00;24.50;;;17.10;;
71080;SDS011;58740;50.672;18.690;2023-09-12T00:21:28;22.70;;;16.40;;
71080;SDS011;58740;50.672;18.690;2023-09-12T00:23:56;24.20;;;16.50;;
71080;SDS011;58740;50.672;18.690;2023-09-12T00:26:23;24.40;;;17.00;;
71080;SDS011;58740;50.672;18.690;2023-09-12T00:28:51;24.10;;;15.70;;
71080;SDS011;58740;50.672;18.690;2023-09-12T00:31:19;22.80;;;15.30;;
71080;SDS011;58740;50.672;18.690;2023-09-12T00:33:47;24.30;;;16.80;;
71080;SDS011;58740;50.672;18.690;2023-09-12T00:36:15;25.40;;;16.90;;
71080;SDS011;58740;50.672;18.690;2023-09-12T00:38:43;24.40;;;17.40;;
71080;SDS011;58740;50.672;18.690;2023-09-12T00:41:11;26.70;;;16.90;;
71080;SDS011;58740;50.672;18.690;2023-09-12T00:43:39;23.80;;;17.60;;
71080;SDS011;58740;50.672;18.690;2023-09-12T00:46:07;24.20;;;16.30;;
71080;SDS011;58740;50.672;18.690;2023-09-12T00:48:35;24.30;;;16.90;;
71080;SDS011;58740;50.672;18.690;2023-09-12T00:51:05;27.10;;;17.00;;
71080;SDS011;58740;50.672;18.690;2023-09-12T00:53:33;27.70;;;18.50;;
71080;SDS011;58740;50.672;18.690;2023-09-12T00:56:01;26.20;;;18.00;;
71080;SDS011;58740;50.672;18.690;2023-09-12T00:58:29;26.10;;;17.40;;
71080;SDS011;58740;50.672;18.690;2023-09-12T01:00:57;27.70;;;17.70;;
71080;SDS011;58740;50.672;18.690;2023-09-12T01:03:26;29.00;;;19.70;;
71080;SDS011;58740;50.672;18.690;2023-09-12T01:05:57;28.40;;;18.10;;
71080;SDS011;58740;50.672;18.690;2023-09-12T01:08:26;28.30;;;17.70;;
71080;SDS011;58740;50.672;18.690;2023-09-12T01:10:56;26.60;;;17.80;;
71080;SDS011;58740;50.672;18.690;2023-09-12T01:13:27;24.90;;;16.80;;
71080;SDS011;58740;50.672;18.690;2023-09-12T01:15:56;25.10;;;17.70;;
71080;SDS011;58740;50.672;18.690;2023-09-12T01:18:24;27.00;;;18.20;;
71080;SDS011;58740;50.672;18.690;2023-09-12T01:29:53;24.20;;;17.60;;
71080;SDS011;58740;50.672;18.690;2023-09-12T01:32:25;28.10;;;17.30;;
71080;SDS011;58740;50.672;18.690;2023-09-12T01:34:54;25.00;;;17.40;;
71080;SDS011;58740;50.672;18.690;2023-09-12T01:37:22;25.60;;;17.30;;
71080;SDS011;58740;50.672;18.690;2023-09-12T01:39:49;27.10;;;17.70;;
71080;SDS011;58740;50.672;18.690;2023-09-12T01:42:21;25.90;;;18.00;;
71080;SDS011;58740;50.672;18.690;2023-09-12T01:44:55;25.70;;;18.50;;
71080;SDS011;58740;50.672;18.690;2023-09-12T01:47:24;23.80;;;17.00;;
71080;SDS011;58740;50.672;18.690;2023-09-12T01:49:55;24.90;;;17.90;;
71080;SDS011;58740;50.672;18.690;2023-09-12T01:52:26;25.70;;;17.70;;
71080;SDS011;58740;50.672;18.690;2023-09-12T01:54:56;24.20;;;17.60;;
71080;SDS011;58740;50.672;18.690;2023-09-12T01:57:24;27.30;;;17.80;;
71080;SDS011;58740;50.672;18.690;2023-09-12T01:59:53;25.30;;;17.20;;
71080;SDS011;58740;50.672;18.690;2023-09-12T02:02:20;25.60;;;17.10;;
71080;SDS011;58740;50.672;18.690;2023-09-12T02:05:19;24.40;;;16.60;;
71080;SDS011;58740;50.672;18.690;2023-09-12T02:07:49;26.50;;;18.00;;
71080;SDS011;58740;50.672;18.690;2023-09-12T02:10:17;26.20;;;17.50;;
71080;SDS011;58740;50.672;18.690;2023-09-12T02:12:44;27.80;;;17.30;;
71080;SDS011;58740;50.672;18.690;2023-09-12T02:15:13;27.30;;;18.30;;
71080;SDS011;58740;50.672;18.690;2023-09-12T02:17:40;29.50;;;18.30;;
71080;SDS011;58740;50.672;18.690;2023-09-12T02:20:09;28.80;;;19.10;;
71080;SDS011;58740;50.672;18.690;2023-09-12T02:22:37;26.20;;;18.20;;
71080;SDS011;58740;50.672;18.690;2023-09-12T02:25:06;26.90;;;18.40;;
71080;SDS011;58740;50.672;18.690;2023-09-12T02:27:35;25.70;;;18.00;;
71080;SDS011;58740;50.672;18.690;2023-09-12T02:30:03;26.10;;;16.70;;
71080;SDS011;58740;50.672;18.690;2023-09-12T02:32:32;26.80;;;17.70;;
71080;SDS011;58740;50.672;18.690;2023-09-12T02:35:00;27.20;;;18.00;;
71080;SDS011;58740;50.672;18.690;2023-09-12T02:37:28;25.20;;;17.70;;
71080;SDS011;58740;50.672;18.690;2023-09-12T02:39:55;24.00;;;17.50;;
71080;SDS011;58740;50.672;18.690;2023-09-12T02:42:23;25.20;;;17.10;;
71080;SDS011;58740;50.672;18.690;2023-09-12T02:44:51;27.10;;;18.80;;
71080;SDS011;58740;50.672;18.690;2023-09-12T02:47:20;25.00;;;17.40;;
71080;SDS011;58740;50.672;18.690;2023-09-12T02:49:47;23.20;;;16.80;;
71080;SDS011;58740;50.672;18.690;2023-09-12T02:52:15;24.00;;;17.10;;
71080;SDS011;58740;50.672;18.690;2023-09-12T02:54:43;25.50;;;17.10;;
71080;SDS011;58740;50.672;18.690;2023-09-12T02:57:11;24.30;;;16.90;;
71080;SDS011;58740;50.672;18.690;2023-09-12T02:59:39;25.30;;;17.60;;
71080;SDS011;58740;50.672;18.690;2023-09-12T03:02:07;26.40;;;17.30;;
71080;SDS011;58740;50.672;18.690;2023-09-12T03:04:35;27.40;;;18.10;;
71080;SDS011;58740;50.672;18.690;2023-09-12T03:07:04;25.10;;;16.80;;
71080;SDS011;58740;50.672;18.690;2023-09-12T03:09:32;21.80;;;16.20;;
71080;SDS011;58740;50.672;18.690;2023-09-12T03:12:04;27.40;;;18.20;;
71080;SDS011;58740;50.672;18.690;2023-09-12T03:14:32;26.00;;;17.60;;
71080;SDS011;58740;50.672;18.690;2023-09-12T03:17:00;27.50;;;17.20;;
71080;SDS011;58740;50.672;18.690;2023-09-12T03:19:29;24.40;;;17.40;;
71080;SDS011;58740;50.672;18.690;2023-09-12T03:21:57;25.40;;;16.90;;
71080;SDS011;58740;50.672;18.690;2023-09-12T03:24:25;25.60;;;17.80;;
71080;SDS011;58740;50.672;18.690;2023-09-12T03:26:53;27.10;;;17.60;;
71080;SDS011;58740;50.672;18.690;2023-09-12T03:29:21;27.10;;;17.30;;
71080;SDS011;58740;50.672;18.690;2023-09-12T03:31:49;25.30;;;17.50;;
71080;SDS011;58740;50.672;18.690;2023-09-12T03:34:17;23.10;;;17.60;;
71080;SDS011;58740;50.672;18.690;2023-09-12T03:36:44;21.70;;;16.20;;
71080;SDS011;58740;50.672;18.690;2023-09-12T03:39:12;24.30;;;16.90;;
71080;SDS011;58740;50.672;18.690;2023-09-12T03:41:40;23.10;;;16.70;;
71080;SDS011;58740;50.672;18.690;2023-09-12T03:44:08;24.00;;;16.10;;
71080;SDS011;58740;50.672;18.690;2023-09-12T03:46:36;22.40;;;16.10;;
71080;SDS011;58740;50.672;18.690;2023-09-12T03:49:04;27.00;;;17.30;;
71080;SDS011;58740;50.672;18.690;2023-09-12T03:51:33;24.10;;;17.40;;
71080;SDS011;58740;50.672;18.690;2023-09-12T03:54:02;24.10;;;17.40;;
71080;SDS011;58740;50.672;18.690;2023-09-12T03:56:30;26.40;;;17.60;;
71080;SDS011;58740;50.672;18.690;2023-09-12T03:58:58;24.20;;;16.10;;
71080;SDS011;58740;50.672;18.690;2023-09-12T04:01:28;25.30;;;16.70;;
71080;SDS011;58740;50.672;18.690;2023-09-12T04:03:55;26.30;;;18.40;;
71080;SDS011;58740;50.672;18.690;2023-09-12T04:06:23;24.90;;;16.50;;
71080;SDS011;58740;50.672;18.690;2023-09-12T04:08:51;26.20;;;17.10;;
71080;SDS011;58740;50.672;18.690;2023-09-12T04:11:19;27.40;;;16.80;;
71080;SDS011;58740;50.672;18.690;2023-09-12T04:14:06;26.30;;;17.00;;
71080;SDS011;58740;50.672;18.690;2023-09-12T04:16:34;22.60;;;16.10;;
71080;SDS011;58740;50.672;18.690;2023-09-12T04:19:02;24.60;;;16.50;;
71080;SDS011;58740;50.672;18.690;2023-09-12T04:21:30;23.20;;;15.90;;
71080;SDS011;58740;50.672;18.690;2023-09-12T04:23:58;28.10;;;16.70;;
71080;SDS011;58740;50.672;18.690;2023-09-12T04:26:26;35.60;;;15.40;;
71080;SDS011;58740;50.672;18.690;2023-09-12T04:28:54;29.40;;;17.30;;
71080;SDS011;58740;50.672;18.690;2023-09-12T04:31:22;28.90;;;17.50;;
71080;SDS011;58740;50.672;18.690;2023-09-12T04:33:53;29.00;;;17.70;;
71080;SDS011;58740;50.672;18.690;2023-09-12T04:36:21;26.30;;;16.70;;
71080;SDS011;58740;50.672;18.690;2023-09-12T04:38:50;27.10;;;17.70;;
71080;SDS011;58740;50.672;18.690;2023-09-12T04:41:18;25.00;;;17.20;;
71080;SDS011;58740;50.672;18.690;2023-09-12T04:43:46;30.00;;;17.60;;
71080;SDS011;58740;50.672;18.690;2023-09-12T04:46:14;26.40;;;17.30;;
71080;SDS011;58740;50.672;18.690;2023-09-12T04:48:42;27.70;;;17.30;;
71080;SDS011;58740;50.672;18.690;2023-09-12T04:51:12;28.90;;;17.70;;
71080;SDS011;58740;50.672;18.690;2023-09-12T04:53:39;25.00;;;17.70;;
71080;SDS011;58740;50.672;18.690;2023-09-12T04:56:07;24.60;;;15.90;;
71080;SDS011;58740;50.672;18.690;2023-09-12T04:58:37;24.50;;;17.30;;
71080;SDS011;58740;50.672;18.690;2023-09-12T05:01:05;27.80;;;17.80;;
71080;SDS011;58740;50.672;18.690;2023-09-12T05:03:33;28.20;;;18.60;;
71080;SDS011;58740;50.672;18.690;2023-09-12T05:06:01;29.70;;;17.30;;
71080;SDS011;58740;50.672;18.690;2023-09-12T05:08:29;28.30;;;17.80;;
71080;SDS011;58740;50.672;18.690;2023-09-12T05:10:57;26.60;;;18.20;;
71080;SDS011;58740;50.672;18.690;2023-09-12T05:13:25;21.20;;;17.50;;
71080;SDS011;58740;50.672;18.690;2023-09-12T05:15:53;25.40;;;17.50;;
71080;SDS011;58740;50.672;18.690;2023-09-12T05:18:21;22.90;;;15.70;;
71080;SDS011;58740;50.672;18.690;2023-09-12T05:20:49;25.50;;;17.30;;
71080;SDS011;58740;50.672;18.690;2023-09-12T05:23:17;26.40;;;18.30;;
71080;SDS011;58740;50.672;18.690;2023-09-12T05:25:44;30.50;;;20.00;;
71080;SDS011;58740;50.672;18.690;2023-09-12T05:28:12;27.10;;;18.60;;
71080;SDS011;58740;50.672;18.690;2023-09-12T05:30:43;25.30;;;17.80;;
71080;SDS011;58740;50.672;18.690;2023-09-12T05:33:11;26.20;;;17.80;;
71080;SDS011;58740;50.672;18.690;2023-09-12T05:35:40;33.20;;;20.60;;
71080;SDS011;58740;50.672;18.690;2023-09-12T05:38:07;31.50;;;21.40;;
71080;SDS011;58740;50.672;18.690;2023-09-12T05:40:35;28.90;;;20.20;;
71080;SDS011;58740;50.672;18.690;2023-09-12T05:43:03;29.80;;;20.50;;
71080;SDS011;58740;50.672;18.690;2023-09-12T05:45:31;31.60;;;20.40;;
71080;SDS011;58740;50.672;18.690;2023-09-12T05:48:00;30.00;;;20.10;;
71080;SDS011;58740;50.672;18.690;2023-09-12T05:50:28;33.00;;;19.20;;
71080;SDS011;58740;50.672;18.690;2023-09-12T05:52:56;33.10;;;20.40;;
71080;SDS011;58740;50.672;18.690;2023-09-12T05:55:24;33.80;;;21.00;;
71080;SDS011;58740;50.672;18.690;2023-09-12T05:57:52;30.90;;;21.30;;
71080;SDS011;58740;50.672;18.690;2023-09-12T06:00:20;32.70;;;22.20;;
71080;SDS011;58740;50.672;18.690;2023-09-12T06:02:48;34.70;;;22.90;;
71080;SDS011;58740;50.672;18.690;2023-09-12T06:05:17;39.30;;;24.30;;
71080;SDS011;58740;50.672;18.690;2023-09-12T06:07:45;35.50;;;22.70;;
71080;SDS011;58740;50.672;18.690;2023-09-12T06:10:14;33.20;;;22.00;;
71080;SDS011;58740;50.672;18.690;2023-09-12T06:12:42;31.40;;;23.20;;
71080;SDS011;58740;50.672;18.690;2023-09-12T06:15:10;34.50;;;21.70;;
71080;SDS011;58740;50.672;18.690;2023-09-12T06:17:38;34.50;;;23.60;;
71080;SDS011;58740;50.672;18.690;2023-09-12T06:20:06;35.20;;;24.30;;
71080;SDS011;58740;50.672;18.690;2023-09-12T06:22:35;32.20;;;22.50;;
71080;SDS011;58740;50.672;18.690;2023-09-12T06:25:03;36.20;;;23.80;;
71080;SDS011;58740;50.672;18.690;2023-09-12T06:27:32;34.20;;;23.30;;
71080;SDS011;58740;50.672;18.690;2023-09-12T06:30:00;34.20;;;22.40;;
71080;SDS011;58740;50.672;18.690;2023-09-12T06:32:28;38.50;;;25.50;;
71080;SDS011;58740;50.672;18.690;2023-09-12T06:34:56;34.70;;;25.00;;
71080;SDS011;58740;50.672;18.690;2023-09-12T06:37:24;30.40;;;23.50;;
71080;SDS011;58740;50.672;18.690;2023-09-12T06:39:51;34.70;;;24.00;;
71080;SDS011;58740;50.672;18.690;2023-09-12T06:42:20;40.50;;;28.20;;
71080;SDS011;58740;50.672;18.690;2023-09-12T06:44:47;41.20;;;29.70;;
71080;SDS011;58740;50.672;18.690;2023-09-12T06:47:15;37.70;;;24.60;;
71080;SDS011;58740;50.672;18.690;2023-09-12T06:49:43;27.40;;;21.20;;
71080;SDS011;58740;50.672;18.690;2023-09-12T06:52:17;27.80;;;21.50;;
71080;SDS011;58740;50.672;18.690;2023-09-12T06:54:45;31.10;;;22.60;;
71080;SDS011;58740;50.672;18.690;2023-09-12T06:57:13;27.10;;;20.00;;
71080;SDS011;58740;50.672;18.690;2023-09-12T06:59:41;27.70;;;20.50;;
71080;SDS011;58740;50.672;18.690;2023-09-12T07:02:09;25.50;;;19.50;;
71080;SDS011;58740;50.672;18.690;2023-09-12T07:04:39;26.90;;;19.80;;
71080;SDS011;58740;50.672;18.690;2023-09-12T07:07:07;27.20;;;19.70;;
71080;SDS011;58740;50.672;18.690;2023-09-12T07:09:34;29.30;;;20.80;;
71080;SDS011;58740;50.672;18.690;2023-09-12T07:12:02;25.00;;;19.50;;
71080;SDS011;58740;50.672;18.690;2023-09-12T07:14:33;29.00;;;18.30;;
71080;SDS011;58740;50.672;18.690;2023-09-12T07:17:01;29.10;;;18.60;;
71080;SDS011;58740;50.672;18.690;2023-09-12T07:19:28;30.20;;;20.00;;
71080;SDS011;58740;50.672;18.690;2023-09-12T07:21:56;25.60;;;19.80;;
71080;SDS011;58740;50.672;18.690;2023-09-12T07:24:25;27.50;;;19.10;;
71080;SDS011;58740;50.672;18.690;2023-09-12T07:26:54;26.80;;;19.30;;
71080;SDS011;58740;50.672;18.690;2023-09-12T07:29:22;21.60;;;17.40;;
71080;SDS011;58740;50.672;18.690;2023-09-12T07:31:53;24.90;;;17.20;;
71080;SDS011;58740;50.672;18.690;2023-09-12T07:34:23;25.70;;;19.10;;
71080;SDS011;58740;50.672;18.690;2023-09-12T07:36:51;21.80;;;17.20;;
71080;SDS011;58740;50.672;18.690;2023-09-12T07:39:19;25.60;;;20.00;;
71080;SDS011;58740;50.672;18.690;2023-09-12T07:41:47;20.80;;;16.40;;
71080;SDS011;58740;50.672;18.690;2023-09-12T07:44:15;24.00;;;16.30;;
71080;SDS011;58740;50.672;18.690;2023-09-12T07:46:44;21.50;;;15.40;;
71080;SDS011;58740;50.672;18.690;2023-09-12T07:49:12;22.70;;;14.80;;
71080;SDS011;58740;50.672;18.690;2023-09-12T07:51:39;21.40;;;15.70;;
71080;SDS011;58740;50.672;18.690;2023-09-12T07:54:07;21.80;;;15.70;;
71080;SDS011;58740;50.672;18.690;2023-09-12T07:56:35;21.90;;;16.30;;
71080;SDS011;58740;50.672;18.690;2023-09-12T07:59:03;19.10;;;15.60;;
71080;SDS011;58740;50.672;18.690;2023-09-12T08:01:31;20.40;;;15.40;;
71080;SDS011;58740;50.672;18.690;2023-09-12T08:03:59;23.80;;;16.60;;
71080;SDS011;58740;50.672;18.690;2023-09-12T08:06:27;21.40;;;15.60;;
71080;SDS011;58740;50.672;18.690;2023-09-12T08:08:55;17.40;;;13.50;;
71080;SDS011;58740;50.672;18.690;2023-09-12T08:11:23;18.50;;;13.20;;
71080;SDS011;58740;50.672;18.690;2023-09-12T08:13:51;20.60;;;13.90;;
71080;SDS011;58740;50.672;18.690;2023-09-12T08:16:18;17.50;;;13.70;;
71080;SDS011;58740;50.672;18.690;2023-09-12T08:18:46;15.40;;;13.40;;
71080;SDS011;58740;50.672;18.690;2023-09-12T08:21:14;31.80;;;18.00;;
71080;SDS011;58740;50.672;18.690;2023-09-12T08:23:42;29.50;;;20.20;;
71080;SDS011;58740;50.672;18.690;2023-09-12T08:26:11;22.90;;;18.00;;
71080;SDS011;58740;50.672;18.690;2023-09-12T08:28:38;22.90;;;17.70;;
71080;SDS011;58740;50.672;18.690;2023-09-12T08:31:07;22.50;;;16.10;;
71080;SDS011;58740;50.672;18.690;2023-09-12T08:33:35;20.40;;;15.10;;
71080;SDS011;58740;50.672;18.690;2023-09-12T08:36:03;18.80;;;13.90;;
71080;SDS011;58740;50.672;18.690;2023-09-12T08:38:31;22.00;;;16.30;;
71080;SDS011;58740;50.672;18.690;2023-09-12T08:40:59;22.40;;;14.30;;
71080;SDS011;58740;50.672;18.690;2023-09-12T08:43:28;19.50;;;15.70;;
71080;SDS011;58740;50.672;18.690;2023-09-12T08:45:56;19.00;;;11.70;;
71080;SDS011;58740;50.672;18.690;2023-09-12T08:48:24;15.40;;;11.70;;
71080;SDS011;58740;50.672;18.690;2023-09-12T08:50:53;20.30;;;11.50;;
71080;SDS011;58740;50.672;18.690;2023-09-12T08:53:22;14.10;;;10.50;;
71080;SDS011;58740;50.672;18.690;2023-09-12T08:55:51;13.80;;;11.50;;
71080;SDS011;58740;50.672;18.690;2023-09-12T08:58:20;18.00;;;12.00;;
71080;SDS011;58740;50.672;18.690;2023-09-12T09:00:50;18.40;;;11.80;;
71080;SDS011;58740;50.672;18.690;2023-09-12T09:03:20;13.10;;;10.40;;
71080;SDS011;58740;50.672;18.690;2023-09-12T09:05:51;15.50;;;10.20;;
71080;SDS011;58740;50.672;18.690;2023-09-12T09:08:21;15.10;;;10.60;;
71080;SDS011;58740;50.672;18.690;2023-09-12T09:10:58;14.00;;;10.30;;
71080;SDS011;58740;50.672;18.690;2023-09-12T09:13:26;13.90;;;10.10;;
71080;SDS011;58740;50.672;18.690;2023-09-12T09:16:23;15.30;;;10.40;;
71080;SDS011;58740;50.672;18.690;2023-09-12T09:21:34;15.30;;;11.30;;
71080;SDS011;58740;50.672;18.690;2023-09-12T09:24:04;14.80;;;10.80;;
71080;SDS011;58740;50.672;18.690;2023-09-12T09:26:46;12.30;;;9.20;;
71080;SDS011;58740;50.672;18.690;2023-09-12T09:29:17;13.90;;;9.80;;
71080;SDS011;58740;50.672;18.690;2023-09-12T09:31:47;14.20;;;10.40;;
71080;SDS011;58740;50.672;18.690;2023-09-12T09:34:19;14.90;;;10.80;;
71080;SDS011;58740;50.672;18.690;2023-09-12T09:36:49;19.40;;;12.90;;
71080;SDS011;58740;50.672;18.690;2023-09-12T09:39:22;20.50;;;13.70;;
71080;SDS011;58740;50.672;18.690;2023-09-12T09:41:56;12.40;;;10.40;;
71080;SDS011;58740;50.672;18.690;2023-09-12T09:44:25;15.70;;;10.20;;
71080;SDS011;58740;50.672;18.690;2023-09-12T09:46:58;13.50;;;10.40;;
71080;SDS011;58740;50.672;18.690;2023-09-12T09:49:34;13.40;;;9.90;;
71080;SDS011;58740;50.672;18.690;2023-09-12T09:52:05;16.40;;;10.10;;
71080;SDS011;58740;50.672;18.690;2023-09-12T09:54:33;14.90;;;9.80;;
71080;SDS011;58740;50.672;18.690;2023-09-12T09:57:01;13.30;;;9.80;;
71080;SDS011;58740;50.672;18.690;2023-09-12T09:59:31;13.30;;;11.20;;
71080;SDS011;58740;50.672;18.690;2023-09-12T10:01:59;17.00;;;10.70;;
71080;SDS011;58740;50.672;18.690;2023-09-12T10:04:28;15.40;;;9.50;;
71080;SDS011;58740;50.672;18.690;2023-09-12T10:06:58;10.90;;;8.10;;
71080;SDS011;58740;50.672;18.690;2023-09-12T10:09:27;13.30;;;10.10;;
71080;SDS011;58740;50.672;18.690;2023-09-12T10:11:57;12.90;;;8.90;;
71080;SDS011;58740;50.672;18.690;2023-09-12T10:14:26;12.70;;;9.10;;
71080;SDS011;58740;50.672;18.690;2023-09-12T10:17:01;12.00;;;9.30;;
71080;SDS011;58740;50.672;18.690;2023-09-12T10:19:51;12.00;;;8.80;;
71080;SDS011;58740;50.672;18.690;2023-09-12T10:22:37;15.90;;;10.70;;
71080;SDS011;58740;50.672;18.690;2023-09-12T10:25:08;14.10;;;10.90;;
71080;SDS011;58740;50.672;18.690;2023-09-12T10:27:37;13.90;;;10.20;;
71080;SDS011;58740;50.672;18.690;2023-09-12T10:30:05;13.60;;;9.40;;
71080;SDS011;58740;50.672;18.690;2023-09-12T10:32:36;14.20;;;9.70;;
71080;SDS011;58740;50.672;18.690;2023-09-12T10:35:06;13.00;;;10.20;;
71080;SDS011;58740;50.672;18.690;2023-09-12T10:37:37;15.20;;;9.30;;
71080;SDS011;58740;50.672;18.690;2023-09-12T10:40:11;11.80;;;9.40;;
71080;SDS011;58740;50.672;18.690;2023-09-12T10:42:40;12.70;;;10.00;;
71080;SDS011;58740;50.672;18.690;2023-09-12T10:45:10;10.60;;;8.40;;
71080;SDS011;58740;50.672;18.690;2023-09-12T10:47:38;15.40;;;8.70;;
71080;SDS011;58740;50.672;18.690;2023-09-12T10:50:07;11.10;;;9.00;;
71080;SDS011;58740;50.672;18.690;2023-09-12T10:52:35;11.00;;;8.00;;
71080;SDS011;58740;50.672;18.690;2023-09-12T10:55:08;14.30;;;9.20;;
71080;SDS011;58740;50.672;18.690;2023-09-12T10:58:01;10.90;;;8.60;;
71080;SDS011;58740;50.672;18.690;2023-09-12T11:00:33;12.40;;;8.80;;
71080;SDS011;58740;50.672;18.690;2023-09-12T11:05:55;13.20;;;9.10;;
71080;SDS011;58740;50.672;18.690;2023-09-12T11:08:24;13.20;;;9.40;;
71080;SDS011;58740;50.672;18.690;2023-09-12T11:11:17;11.70;;;9.00;;
71080;SDS011;58740;50.672;18.690;2023-09-12T11:14:07;15.10;;;9.60;;
71080;SDS011;58740;50.672;18.690;2023-09-12T11:16:36;15.80;;;9.00;;
71080;SDS011;58740;50.672;18.690;2023-09-12T11:19:18;12.20;;;9.20;;
71080;SDS011;58740;50.672;18.690;2023-09-12T11:21:53;12.10;;;9.20;;
71080;SDS011;58740;50.672;18.690;2023-09-12T11:24:23;12.60;;;9.10;;
71080;SDS011;58740;50.672;18.690;2023-09-12T11:26:56;16.70;;;9.60;;
71080;SDS011;58740;50.672;18.690;2023-09-12T11:29:34;13.80;;;9.40;;
71080;SDS011;58740;50.672;18.690;2023-09-12T11:32:04;13.20;;;9.00;;
71080;SDS011;58740;50.672;18.690;2023-09-12T11:34:43;13.50;;;8.60;;
71080;SDS011;58740;50.672;18.690;2023-09-12T11:37:22;10.00;;;7.90;;
71080;SDS011;58740;50.672;18.690;2023-09-12T11:39:54;13.90;;;8.80;;
71080;SDS011;58740;50.672;18.690;2023-09-12T11:42:22;11.60;;;9.10;;
71080;SDS011;58740;50.672;18.690;2023-09-12T11:44:53;13.40;;;8.80;;
71080;SDS011;58740;50.672;18.690;2023-09-12T11:47:21;11.20;;;8.80;;
71080;SDS011;58740;50.672;18.690;2023-09-12T11:49:51;13.50;;;9.20;;
71080;SDS011;58740;50.672;18.690;2023-09-12T11:52:19;12.80;;;8.60;;
71080;SDS011;58740;50.672;18.690;2023-09-12T11:54:48;13.00;;;9.30;;
71080;SDS011;58740;50.672;18.690;2023-09-12T11:57:16;10.30;;;8.20;;
71080;SDS011;58740;50.672;18.690;2023-09-12T11:59:45;13.20;;;9.00;;
71080;SDS011;58740;50.672;18.690;2023-09-12T12:02:16;9.60;;;7.60;;
71080;SDS011;58740;50.672;18.690;2023-09-12T12:04:45;13.80;;;8.60;;
71080;SDS011;58740;50.672;18.690;2023-09-12T12:07:13;11.40;;;8.10;;
71080;SDS011;58740;50.672;18.690;2023-09-12T12:09:41;9.60;;;6.90;;
71080;SDS011;58740;50.672;18.690;2023-09-12T12:12:14;12.30;;;8.20;;
71080;SDS011;58740;50.672;18.690;2023-09-12T12:14:42;13.10;;;8.50;;
71080;SDS011;58740;50.672;18.690;2023-09-12T12:17:12;14.00;;;9.00;;
71080;SDS011;58740;50.672;18.690;2023-09-12T12:19:45;13.50;;;10.10;;
71080;SDS011;58740;50.672;18.690;2023-09-12T12:22:14;11.70;;;9.20;;
71080;SDS011;58740;50.672;18.690;2023-09-12T12:24:45;12.10;;;9.40;;
71080;SDS011;58740;50.672;18.690;2023-09-12T12:27:15;12.20;;;9.70;;
71080;SDS011;58740;50.672;18.690;2023-09-12T12:29:44;13.40;;;9.50;;
71080;SDS011;58740;50.672;18.690;2023-09-12T12:32:15;12.20;;;9.60;;
71080;SDS011;58740;50.672;18.690;2023-09-12T12:34:48;11.20;;;8.40;;
71080;SDS011;58740;50.672;18.690;2023-09-12T12:37:37;14.90;;;9.90;;
71080;SDS011;58740;50.672;18.690;2023-09-12T12:40:05;10.80;;;8.80;;
71080;SDS011;58740;50.672;18.690;2023-09-12T12:42:40;13.90;;;8.90;;
71080;SDS011;58740;50.672;18.690;2023-09-12T12:45:22;13.20;;;9.50;;
71080;SDS011;58740;50.672;18.690;2023-09-12T12:47:57;12.60;;;10.00;;
71080;SDS011;58740;50.672;18.690;2023-09-12T12:50:27;11.80;;;8.30;;
71080;SDS011;58740;50.672;18.690;2023-09-12T12:52:56;12.60;;;9.60;;
71080;SDS011;58740;50.672;18.690;2023-09-12T12:55:25;11.90;;;9.40;;
71080;SDS011;58740;50.672;18.690;2023-09-12T12:57:54;13.10;;;8.80;;
71080;SDS011;58740;50.672;18.690;2023-09-12T13:00:22;12.20;;;8.90;;
71080;SDS011;58740;50.672;18.690;2023-09-12T13:02:51;14.10;;;9.40;;
71080;SDS011;58740;50.672;18.690;2023-09-12T13:05:21;11.70;;;8.40;;
71080;SDS011;58740;50.672;18.690;2023-09-12T13:07:52;16.00;;;8.90;;
71080;SDS011;58740;50.672;18.690;2023-09-12T13:10:22;12.10;;;9.60;;
71080;SDS011;58740;50.672;18.690;2023-09-12T13:12:50;12.50;;;8.70;;
71080;SDS011;58740;50.672;18.690;2023-09-12T13:15:18;14.90;;;8.90;;
71080;SDS011;58740;50.672;18.690;2023-09-12T13:17:46;12.40;;;9.90;;
71080;SDS011;58740;50.672;18.690;2023-09-12T13:20:14;13.60;;;9.30;;
71080;SDS011;58740;50.672;18.690;2023-09-12T13:22:42;13.00;;;9.30;;
71080;SDS011;58740;50.672;18.690;2023-09-12T13:25:11;12.60;;;9.00;;
71080;SDS011;58740;50.672;18.690;2023-09-12T13:27:39;12.40;;;9.70;;
71080;SDS011;58740;50.672;18.690;2023-09-12T13:30:07;11.60;;;9.00;;
71080;SDS011;58740;50.672;18.690;2023-09-12T13:32:35;12.20;;;8.10;;
71080;SDS011;58740;50.672;18.690;2023-09-12T13:35:03;13.50;;;9.20;;
71080;SDS011;58740;50.672;18.690;2023-09-12T13:37:31;11.40;;;8.90;;
71080;SDS011;58740;50.672;18.690;2023-09-12T13:39:59;12.40;;;8.90;;
71080;SDS011;58740;50.672;18.690;2023-09-12T13:42:27;14.00;;;9.40;;
71080;SDS011;58740;50.672;18.690;2023-09-12T13:44:58;14.70;;;10.00;;
71080;SDS011;58740;50.672;18.690;2023-09-12T13:47:26;13.90;;;9.50;;
71080;SDS011;58740;50.672;18.690;2023-09-12T13:49:54;13.20;;;9.30;;
71080;SDS011;58740;50.672;18.690;2023-09-12T13:52:22;12.30;;;8.70;;
71080;SDS011;58740;50.672;18.690;2023-09-12T13:54:50;12.50;;;9.80;;
71080;SDS011;58740;50.672;18.690;2023-09-12T13:57:18;12.40;;;9.10;;
71080;SDS011;58740;50.672;18.690;2023-09-12T13:59:46;17.40;;;11.20;;
71080;SDS011;58740;50.672;18.690;2023-09-12T14:02:13;12.90;;;8.70;;
71080;SDS011;58740;50.672;18.690;2023-09-12T14:04:41;11.50;;;8.10;;
71080;SDS011;58740;50.672;18.690;2023-09-12T14:07:10;12.00;;;8.60;;
71080;SDS011;58740;50.672;18.690;2023-09-12T14:09:39;11.10;;;8.80;;
71080;SDS011;58740;50.672;18.690;2023-09-12T14:12:07;15.10;;;9.00;;
71080;SDS011;58740;50.672;18.690;2023-09-12T14:14:51;13.10;;;10.20;;
71080;SDS011;58740;50.672;18.690;2023-09-12T14:17:33;12.70;;;9.70;;
71080;SDS011;58740;50.672;18.690;2023-09-12T14:20:03;15.70;;;9.90;;
71080;SDS011;58740;50.672;18.690;2023-09-12T14:22:31;12.20;;;9.90;;
71080;SDS011;58740;50.672;18.690;2023-09-12T14:24:59;13.10;;;9.50;;
71080;SDS011;58740;50.672;18.690;2023-09-12T14:27:29;16.20;;;9.50;;
71080;SDS011;58740;50.672;18.690;2023-09-12T14:29:57;11.10;;;8.60;;
71080;SDS011;58740;50.672;18.690;2023-09-12T14:32:27;14.00;;;9.30;;
71080;SDS011;58740;50.672;18.690;2023-09-12T14:34:55;12.50;;;9.20;;
71080;SDS011;58740;50.672;18.690;2023-09-12T14:37:23;13.30;;;9.10;;
71080;SDS011;58740;50.672;18.690;2023-09-12T14:39:54;13.20;;;9.30;;
71080;SDS011;58740;50.672;18.690;2023-09-12T14:42:25;12.00;;;9.00;;